KCPR

Casper / Natrona County International Airport

Casper, Wyoming, USA
METAR KCPR 172053Z 23032G40KT 10SM CLR 06/M10 A2984 RMK AO2 PK WND 23045/2007 SLP113 60000 T00611100 58034 $
Observed Flight Rules
Feb-17 @ 20:53 UTC (41 minutes ago) Visual Flight Rules
Wind Visibility Clouds
230° at 32 knots
 Gusting to 40 knots
10 miles
  • Clear skies
Temperatures Readings
Current 6°C / 43°F
Dewpoint -10°C / 14°F
Humidity 31%
Altimeter 29.84" Hg
Pressure 1011.3 hPa
Elevation 1621
METAR KCPR 172053Z 23032G40KT 10SM CLR 06/M10 A2984 RMK AO2 PK WND 23045/2007 SLP113 60000 T00611100 58034 $
Observed Flight Rules
Feb-17 @ 20:53 UTC
(41 minutes ago)
VFR
Wind Visibility
230° at 32 knots
 Gusting to 40 knots
10 miles
Clouds
  • Clear skies
Temperature Dewpoint
6°C / 43°F -10°C / 14°F
Humidity Altimeter Pressure
31% 29.84" Hg 1011.3 hPa